KHYA/HYA METAR and TAF weather

Enter ICAO airport designator
Station Type Date Time Source
KHYA METAR 2023/03/22 07:56 UTC NOAA

KHYA 220756Z AUTO 23004KT 10SM CLR 01/M01 A3036 RMK AO2 SLP280 T00111006


Station Type Date Time Source
KHYA Decoded METAR 2023/03/22 07:56 UTC NOAA

HYANNIS BARNSTABLE BOARDMN, MA, United States (KHYA) 41-40N 070-16W 22M
Mar 22, 2023 - 03:56 AM EDT / 2023.03.22 0756 UTC
Wind: from the SW (230 degrees) at 5 MPH (4 KT):0
Visibility: 10 mile(s):0
Sky conditions: clear
Temperature: 34.0 F (1.1 C)
Windchill: 30 F (-1 C):1
Dew Point: 30.9 F (-0.6 C)
Relative Humidity: 88%
Pressure (altimeter): 30.36 in. Hg (1028 hPa)
ob: KHYA 220756Z AUTO 23004KT 10SM CLR 01/M01 A3036 RMK AO2 SLP280 T00111006
cycle: 8

Station Type Date Time Source
KHYA TAF 2023/03/22 06:33 UTC NOAA

TAF KHYA 220531Z 2206/2306 25006KT P6SM SCT250
FM220900 35005KT P6SM SCT250
FM221300 08007KT P6SM BKN200
FM221800 15008KT P6SM BKN200
FM222100 19008KT P6SM BKN200
FM230200 19005KT P6SM BKN060

Example: see airport list